Portada
METAR-TAF:

METAR-TAF

Aeroports :

Vientiane, Laos

latitud: 17-57N, longitud: 102-34E, altitud: 171 m

Observació

L'informe es va fer fa 33 minuts, a les 04:00 UTC
Vent 4 kt del Nord/Nord-Oest
Temperatura 28°C
Humitat 55%
Pressió 1017 hPa
Visibilitat: 7000 m
Escasses núvols a una alçada de 2000 ft

METAR: VLVT 210400Z 34004KT 7000 FEW020 28/18 Q1017 NOSIG

Hora: 11:33 (04:33 UTC)

Pronòstic

L'informe es va fer fa 5 hores i 33 minuts, a les 23:00 UTC
Pronòstic vàlid del 21 a les 00 UTC al 21 a les 24 UTC
Vent 4 kt del Est/Nord-Est
Visibilitat: 8000 m
Escasses núvols a una alçada de 2000 ft
Escasses núvols a una alçada de 5000 ft

TAF: VLVT 202300Z 2100/2124 06004KT 8000 FEW020 FEW050

Observacions i pronòstics meteorològics de més de 4000 aeroports (METAR i TAF).

Les estacions disponibles són els punts grocs i vermells al mapa.

Posi el ratolí al punt desitjat per veure el nom de l'estació.

Feu clic per veure les observacions i els pronòstics meteorològics.

Per canviar el mapa: feu clic els botons verds amb una creu de color negre per apropar; al botó verd amb un guió per allunyar la imatge; o en les fletxes verdes per a mapes adjacents.


METAR-TAF: